Time;durP1;ratioP1;P1;durP2;ratioP2;P2;SDS_P1;SDS_P2;PMS_P1;PMS_P2;Temp;Humidity;BMP_temperature;BMP_pressure;BME280_temperature;BME280_humidity;BME280_pressure;Samples;Min_cycle;Max_cycle;Signal;HPM_P1;HPM_P2
2022/01/14 00:02:10;;;;;;;16.20;6.90;;;;;;;3.21;100.00;101165.97;5001200;28;20033;-84
2022/01/14 00:04:37;;;;;;;10.80;6.15;;;;;;;3.32;100.00;101167.06;4988864;28;20447;-84
2022/01/14 00:07:03;;;;;;;16.15;6.13;;;;;;;3.33;100.00;101168.72;4989203;28;20041;-84
2022/01/14 00:09:37;;;;;;;15.57;6.97;;;;;;;3.32;100.00;101169.66;4981497;28;20034;-84
2022/01/14 00:12:15;;;;;;;19.20;6.93;;;;;;;3.21;100.00;101160.78;4983493;28;20037;-83
2022/01/14 00:14:44;;;;;;;13.65;6.55;;;;;;;3.16;100.00;101167.19;4986973;28;20041;-83
2022/01/14 00:17:15;;;;;;;17.45;5.95;;;;;;;3.04;100.00;101179.16;4992878;28;20049;-83
2022/01/14 00:19:41;;;;;;;18.88;6.30;;;;;;;2.94;100.00;101177.09;4998517;28;20031;-82
2022/01/14 00:22:12;;;;;;;15.32;6.78;;;;;;;2.81;100.00;101181.34;5003671;28;20447;-83
2022/01/14 00:33:09;;;;;;;15.15;6.40;;;;;;;2.59;100.00;101176.59;4998609;28;20034;-83
2022/01/14 00:35:37;;;;;;;14.95;7.65;;;;;;;2.52;100.00;101171.75;4982561;28;20030;-84
2022/01/14 00:38:03;;;;;;;15.82;6.78;;;;;;;2.42;100.00;101168.03;4982227;28;20030;-83
2022/01/14 00:40:30;;;;;;;15.15;6.80;;;;;;;2.33;100.00;101158.19;4986581;28;20029;-83
2022/01/14 00:42:57;;;;;;;15.85;7.03;;;;;;;2.36;100.00;101168.38;4999460;28;20018;-83
2022/01/14 00:45:22;;;;;;;16.38;6.97;;;;;;;2.35;100.00;101158.94;4991212;28;20030;-82
2022/01/14 00:47:49;;;;;;;20.45;7.50;;;;;;;2.45;100.00;101156.66;5002103;28;20034;-84
2022/01/14 00:50:15;;;;;;;12.93;7.20;;;;;;;2.55;100.00;101168.13;4970664;28;20030;-82
2022/01/14 00:52:42;;;;;;;19.77;7.72;;;;;;;2.68;100.00;101171.69;4971482;28;20499;-82
2022/01/14 00:55:12;;;;;;;18.35;7.35;;;;;;;2.66;100.00;101160.56;4998775;28;20025;-82
2022/01/14 01:00:27;;;;;;;13.43;6.57;;;;;;;2.55;100.00;101168.13;4984196;28;20109;-81
2022/01/14 01:02:52;;;;;;;18.33;6.88;;;;;;;2.51;100.00;101174.44;4981159;28;20168;-82
2022/01/14 01:05:19;;;;;;;13.63;6.60;;;;;;;2.47;100.00;101171.19;5001951;28;20124;-84
2022/01/14 01:07:55;;;;;;;14.10;6.38;;;;;;;2.30;100.00;101174.75;4982986;28;20042;-83
2022/01/14 01:10:20;;;;;;;23.05;8.27;;;;;;;2.22;100.00;101182.13;4984266;28;20038;-84
2022/01/14 01:12:57;;;;;;;14.13;7.03;;;;;;;2.04;100.00;101163.25;5001222;28;20084;-84
2022/01/14 01:15:22;;;;;;;13.90;6.85;;;;;;;2.03;100.00;101178.00;4989149;28;20034;-84
2022/01/14 01:17:49;;;;;;;18.23;7.32;;;;;;;1.97;100.00;101175.75;4986940;28;20057;-84
2022/01/14 01:20:18;;;;;;;16.77;7.03;;;;;;;1.91;100.00;101181.25;5009142;28;20096;-86
2022/01/14 01:22:48;;;;;;;16.27;7.03;;;;;;;1.87;100.00;101175.44;5014856;28;20029;-82
2022/01/14 01:25:18;;;;;;;16.08;6.43;;;;;;;1.82;100.00;101175.69;4995170;28;20081;-82
2022/01/14 01:27:45;;;;;;;18.27;7.40;;;;;;;1.94;100.00;101183.66;5007042;28;20038;-83
2022/01/14 01:30:37;;;;;;;19.52;7.85;;;;;;;2.12;100.00;101190.41;4974617;28;20113;-82
2022/01/14 01:33:07;;;;;;;20.70;7.57;;;;;;;2.20;100.00;101189.16;5009714;28;20484;-85
2022/01/14 01:35:34;;;;;;;18.15;7.82;;;;;;;2.37;100.00;101190.78;4988732;28;20546;-84
2022/01/14 01:38:00;;;;;;;12.35;6.53;;;;;;;2.43;100.00;101183.50;5005858;28;20453;-82
2022/01/14 01:40:27;;;;;;;15.20;8.10;;;;;;;2.53;100.00;101195.91;4991302;28;20121;-84
2022/01/14 01:42:55;;;;;;;22.90;8.27;;;;;;;2.12;100.00;101180.06;4991471;28;20065;-85
2022/01/14 01:45:25;;;;;;;14.02;6.57;;;;;;;2.14;100.00;101185.16;5012058;28;20030;-83
2022/01/14 01:47:52;;;;;;;17.75;6.60;;;;;;;2.62;100.00;101190.22;4991795;28;20026;-85
2022/01/14 01:50:21;;;;;;;15.52;6.95;;;;;;;2.80;100.00;101177.09;4995702;28;20037;-84
2022/01/14 01:52:47;;;;;;;12.98;6.07;;;;;;;2.80;100.00;101169.31;5006851;28;20541;-84
2022/01/14 01:55:13;;;;;;;18.08;6.65;;;;;;;2.72;100.00;101172.34;5007928;28;20038;-85
2022/01/14 01:57:42;;;;;;;16.60;6.60;;;;;;;2.65;100.00;101177.06;4992013;28;20037;-84
2022/01/14 02:00:11;;;;;;;15.38;6.72;;;;;;;2.61;100.00;101178.19;4989870;28;20029;-84
2022/01/14 02:02:37;;;;;;;14.55;7.03;;;;;;;2.64;100.00;101172.81;5012797;28;20030;-84
2022/01/14 02:05:05;;;;;;;13.27;6.53;;;;;;;2.77;100.00;101182.47;4988531;28;20034;-85
2022/01/14 02:07:34;;;;;;;18.98;6.82;;;;;;;2.81;100.00;101168.38;4991714;28;20092;-84
2022/01/14 02:10:00;;;;;;;12.25;6.55;;;;;;;2.74;100.00;101161.88;4990342;28;20034;-85
2022/01/14 02:12:34;;;;;;;20.40;7.55;;;;;;;2.64;100.00;101172.81;4990825;28;20040;-85
2022/01/14 02:15:13;;;;;;;14.80;6.25;;;;;;;2.71;100.00;101163.72;5005211;28;20108;-84
2022/01/14 02:23:01;;;;;;;13.35;6.47;;;;;;;2.49;100.00;101158.97;5004604;28;20030;-84
2022/01/14 02:25:30;;;;;;;16.02;7.63;;;;;;;2.34;100.00;101154.69;4991602;28;20081;-83
2022/01/14 02:28:08;;;;;;;14.68;6.65;;;;;;;2.27;100.00;101159.38;5002399;28;20033;-84
2022/01/14 02:30:39;;;;;;;11.75;6.85;;;;;;;2.17;100.00;101158.25;5005615;28;20037;-84
2022/01/14 02:33:05;;;;;;;21.08;6.82;;;;;;;2.20;100.00;101160.66;5005973;28;20046;-84
2022/01/14 02:35:31;;;;;;;15.43;6.85;;;;;;;2.17;100.00;101159.06;4984773;28;20030;-83
2022/01/14 02:37:58;;;;;;;11.15;6.60;;;;;;;2.14;100.00;101160.06;4990449;28;20038;-85
2022/01/14 02:40:25;;;;;;;19.80;7.38;;;;;;;2.02;100.00;101165.97;5006438;28;20396;-84
2022/01/14 02:42:50;;;;;;;17.27;7.50;;;;;;;2.03;100.00;101161.59;5003968;28;20534;-84
2022/01/14 02:45:17;;;;;;;14.82;6.43;;;;;;;2.00;100.00;101157.44;5007036;28;20030;-84
2022/01/14 02:47:44;;;;;;;16.27;7.13;;;;;;;1.94;100.00;101152.59;4996374;28;20499;-84
2022/01/14 02:50:15;;;;;;;14.55;7.15;;;;;;;1.94;100.00;101157.75;4991189;28;20092;-83
2022/01/14 02:55:21;;;;;;;15.85;7.68;;;;;;;2.07;100.00;101155.34;5004551;28;20034;-85
2022/01/14 02:57:49;;;;;;;14.25;8.15;;;;;;;2.06;100.00;101154.50;5005581;28;20076;-86
2022/01/14 03:00:17;;;;;;;15.38;7.68;;;;;;;2.12;100.00;101141.19;5006503;28;20064;-85
2022/01/14 03:02:47;;;;;;;18.85;8.68;;;;;;;2.19;100.00;101146.03;5003905;28;20026;-84
2022/01/14 03:05:15;;;;;;;19.27;8.40;;;;;;;2.14;100.00;101149.69;4988726;28;20462;-85
2022/01/14 03:07:41;;;;;;;17.48;9.05;;;;;;;2.11;100.00;101152.47;5004095;28;20041;-84
2022/01/14 03:10:10;;;;;;;23.88;8.60;;;;;;;2.12;100.00;101155.91;5004032;28;20440;-85
2022/01/14 03:12:36;;;;;;;18.00;8.10;;;;;;;2.04;100.00;101143.38;4989284;28;20067;-85
2022/01/14 03:15:03;;;;;;;24.50;9.43;;;;;;;2.04;100.00;101148.56;4985120;28;20037;-85
2022/01/14 03:17:29;;;;;;;25.13;9.25;;;;;;;2.10;100.00;101142.22;4985375;28;20030;-84
2022/01/14 03:19:57;;;;;;;20.10;8.85;;;;;;;2.17;100.00;101148.69;4985140;28;20029;-83
2022/01/14 03:22:34;;;;;;;22.83;9.70;;;;;;;2.31;100.00;101144.50;5002970;28;20468;-84
2022/01/14 03:27:45;;;;;;;20.60;10.07;;;;;;;2.28;100.00;101124.75;5008990;28;20117;-85
2022/01/14 03:30:12;;;;;;;26.27;10.32;;;;;;;2.21;100.00;101128.66;5003892;28;20187;-85
2022/01/14 03:32:42;;;;;;;23.33;10.70;;;;;;;2.21;100.00;101124.28;4984174;28;20052;-84
2022/01/14 03:35:09;;;;;;;22.25;11.43;;;;;;;2.14;100.00;101128.97;4986923;28;20093;-84
2022/01/14 03:37:35;;;;;;;25.33;11.32;;;;;;;2.10;100.00;101119.72;5006058;28;20116;-84
2022/01/14 03:40:02;;;;;;;24.25;10.13;;;;;;;2.11;100.00;101117.97;5001671;28;20041;-85
2022/01/14 03:42:28;;;;;;;30.13;11.73;;;;;;;2.16;100.00;101122.88;4985963;28;20027;-85
2022/01/14 03:44:54;;;;;;;26.83;12.07;;;;;;;2.12;100.00;101117.88;5002423;28;20077;-84
2022/01/14 03:47:20;;;;;;;32.08;12.60;;;;;;;2.06;100.00;101127.75;4987696;28;20046;-85
2022/01/14 03:49:46;;;;;;;21.75;12.65;;;;;;;2.02;100.00;101119.34;4999817;28;20022;-83
2022/01/14 03:52:11;;;;;;;29.73;14.10;;;;;;;2.04;100.00;101116.63;5004330;28;20036;-84
2022/01/14 03:54:37;;;;;;;25.38;12.57;;;;;;;2.00;100.00;101121.19;5007066;28;20042;-84
2022/01/14 03:57:03;;;;;;;29.15;12.68;;;;;;;1.98;100.00;101118.66;5002176;28;20030;-84
2022/01/14 03:59:28;;;;;;;27.13;13.18;;;;;;;2.02;100.00;101108.13;5003603;28;20034;-83
2022/01/14 04:01:54;;;;;;;33.58;12.63;;;;;;;2.10;100.00;101105.94;5003150;28;20443;-83
2022/01/14 04:04:19;;;;;;;34.65;12.98;;;;;;;2.22;100.00;101118.19;4986289;28;21807;-84
2022/01/14 04:06:45;;;;;;;25.83;11.95;;;;;;;2.36;100.00;101116.56;5002114;28;20416;-83
2022/01/14 04:09:11;;;;;;;31.27;12.60;;;;;;;2.29;100.00;101105.69;5000884;28;20026;-84
2022/01/14 04:11:38;;;;;;;29.92;12.55;;;;;;;2.29;100.00;101113.47;4981881;28;20484;-85
2022/01/14 04:15:36;;;;;;;33.03;12.90;;;;;;;2.25;100.00;101115.41;5002484;28;20384;-85
2022/01/14 04:16:54;;;;;;;28.30;11.73;;;;;;;2.37;100.00;101107.84;4984088;28;20045;-85
2022/01/14 04:19:19;;;;;;;23.98;11.95;;;;;;;2.36;100.00;101117.41;4985606;28;20392;-84
2022/01/14 04:21:45;;;;;;;31.80;12.13;;;;;;;2.31;100.00;101109.03;5004143;28;20033;-84
2022/01/14 04:24:13;;;;;;;22.63;10.95;;;;;;;2.26;100.00;101105.88;4969642;28;20173;-84
2022/01/14 04:26:39;;;;;;;27.05;11.52;;;;;;;2.28;100.00;101114.41;5002654;28;20026;-83
2022/01/14 04:29:04;;;;;;;21.17;11.07;;;;;;;2.41;100.00;101105.00;5008418;28;20040;-84
2022/01/14 04:31:30;;;;;;;24.27;11.85;;;;;;;2.46;100.00;101101.28;4987178;28;20033;-85
2022/01/14 04:33:55;;;;;;;26.25;11.82;;;;;;;2.46;100.00;101091.78;4989559;28;20048;-84
2022/01/14 04:36:21;;;;;;;23.83;12.02;;;;;;;2.56;100.00;101092.06;5006616;28;20112;-83
2022/01/14 04:38:47;;;;;;;26.42;12.95;;;;;;;2.54;100.00;101083.50;5008586;28;20026;-84
2022/01/14 04:41:13;;;;;;;19.90;11.77;;;;;;;2.48;100.00;101074.38;4991977;28;20045;-85
2022/01/14 04:43:39;;;;;;;23.48;11.88;;;;;;;2.42;100.00;101079.88;5003237;28;20487;-84
2022/01/14 04:48:35;;;;;;;24.85;12.48;;;;;;;2.33;100.00;101072.69;4995706;28;20173;-84
2022/01/14 04:51:05;;;;;;;24.15;11.57;;;;;;;2.28;100.00;101062.56;5002417;28;20486;-85
2022/01/14 04:53:30;;;;;;;27.90;12.48;;;;;;;2.32;100.00;101064.06;5002807;28;20034;-85
2022/01/14 04:55:57;;;;;;;28.98;11.57;;;;;;;2.51;100.00;101050.00;5003626;28;20026;-84
2022/01/14 04:58:26;;;;;;;29.33;13.48;;;;;;;2.49;100.00;101062.22;5003467;28;20038;-84
2022/01/14 05:00:52;;;;;;;28.38;12.80;;;;;;;2.41;100.00;101054.91;4999651;28;20034;-86
2022/01/14 05:03:19;;;;;;;25.13;12.20;;;;;;;2.54;100.00;101039.44;5004981;28;20074;-85
2022/01/14 05:05:48;;;;;;;26.90;12.18;;;;;;;2.50;100.00;101041.41;4986078;28;20034;-86
2022/01/14 05:08:24;;;;;;;29.00;13.57;;;;;;;2.56;100.00;101035.03;4984098;28;20400;-85
2022/01/14 05:13:24;;;;;;;22.02;12.82;;;;;;;2.43;100.00;101015.00;5003520;28;20103;-85
2022/01/14 05:15:50;;;;;;;33.08;14.07;;;;;;;2.40;100.00;101017.78;4986760;28;20048;-84
2022/01/14 05:18:16;;;;;;;21.27;13.50;;;;;;;2.34;100.00;101007.78;4989095;28;20042;-86
2022/01/14 05:20:42;;;;;;;27.55;12.85;;;;;;;2.19;100.00;101013.91;4987524;28;20030;-86
2022/01/14 05:23:08;;;;;;;31.02;14.48;;;;;;;2.09;100.00;101022.19;4981818;28;20040;-84
2022/01/14 05:25:36;;;;;;;24.73;13.38;;;;;;;1.78;100.00;101029.19;4988229;28;20033;-84
2022/01/14 05:28:02;;;;;;;24.00;12.90;;;;;;;1.59;100.00;101023.38;5004715;28;20030;-83
2022/01/14 05:30:28;;;;;;;19.63;12.27;;;;;;;1.43;100.00;101011.28;4986213;28;20428;-84
2022/01/14 05:32:54;;;;;;;21.40;12.63;;;;;;;1.33;100.00;101020.47;5006591;28;20132;-85
2022/01/14 05:35:22;;;;;;;25.77;13.20;;;;;;;1.26;100.00;101009.63;4988271;28;20483;-84
2022/01/14 05:37:48;;;;;;;29.25;15.40;;;;;;;1.19;100.00;101018.66;4985805;28;20038;-85
2022/01/14 05:40:15;;;;;;;27.58;13.90;;;;;;;1.21;100.00;101025.44;5002759;28;20026;-85
2022/01/14 05:42:41;;;;;;;27.45;13.60;;;;;;;1.32;100.00;101022.25;5006411;28;20026;-84
2022/01/14 05:45:09;;;;;;;24.10;12.98;;;;;;;1.33;100.00;101023.06;5011920;28;20101;-83
2022/01/14 05:47:36;;;;;;;24.85;12.63;;;;;;;1.23;100.00;101023.59;5003133;28;20029;-85
2022/01/14 05:50:10;;;;;;;27.80;13.55;;;;;;;1.22;100.00;101021.91;4990019;28;20117;-85
2022/01/14 05:52:36;;;;;;;28.35;12.38;;;;;;;1.30;100.00;101031.00;5004154;28;20038;-84
2022/01/14 05:55:02;;;;;;;31.60;14.98;;;;;;;1.25;100.00;101032.09;4984396;28;20113;-84
2022/01/14 05:57:27;;;;;;;21.63;11.98;;;;;;;1.14;100.00;101027.50;5004030;28;20499;-84
2022/01/14 05:59:53;;;;;;;33.05;14.77;;;;;;;1.17;100.00;101033.44;5004024;28;20026;-84
2022/01/14 06:02:19;;;;;;;30.20;14.88;;;;;;;1.34;100.00;101032.50;5003486;28;20034;-84
2022/01/14 06:04:45;;;;;;;28.67;14.63;;;;;;;1.39;100.00;101035.69;5006732;28;20108;-83
2022/01/14 06:07:11;;;;;;;26.02;13.90;;;;;;;1.39;100.00;101030.50;5007646;28;20033;-85
2022/01/14 06:09:37;;;;;;;32.13;14.45;;;;;;;1.34;100.00;101035.09;5004678;28;20400;-85
2022/01/14 06:12:04;;;;;;;28.08;12.48;;;;;;;1.23;100.00;101028.75;4995015;28;20022;-84
2022/01/14 06:14:29;;;;;;;30.67;13.98;;;;;;;1.17;100.00;101023.09;5007139;28;20503;-84
2022/01/14 06:16:55;;;;;;;27.98;13.50;;;;;;;1.27;100.00;101019.06;5001987;28;20060;-84
2022/01/14 06:19:20;;;;;;;26.58;14.45;;;;;;;1.25;100.00;101015.72;5007321;28;20034;-84
2022/01/14 06:21:47;;;;;;;31.60;14.43;;;;;;;1.16;100.00;101016.25;4985696;28;20460;-83
2022/01/14 06:24:13;;;;;;;27.85;13.98;;;;;;;1.11;100.00;101008.72;4969520;28;20042;-84
2022/01/14 06:26:39;;;;;;;27.20;13.60;;;;;;;1.03;100.00;101009.16;5008536;28;20064;-83
2022/01/14 06:29:05;;;;;;;27.27;12.57;;;;;;;0.95;100.00;101004.38;4985419;28;20080;-84
2022/01/14 06:31:31;;;;;;;28.48;12.05;;;;;;;1.03;100.00;100997.97;5007723;28;20034;-84
2022/01/14 06:33:56;;;;;;;23.50;11.65;;;;;;;1.02;100.00;100998.91;4987749;28;20092;-84
2022/01/14 06:36:22;;;;;;;23.33;10.48;;;;;;;1.40;100.00;101001.13;4989761;28;20467;-84
2022/01/14 06:38:47;;;;;;;21.90;10.88;;;;;;;1.63;100.00;100998.97;4988401;28;20040;-84
2022/01/14 06:41:14;;;;;;;19.20;9.85;;;;;;;1.68;100.00;101002.13;5005264;28;20036;-84
2022/01/14 06:43:39;;;;;;;21.85;10.13;;;;;;;1.73;100.00;101000.09;4984481;28;20484;-84
2022/01/14 06:46:05;;;;;;;20.42;10.32;;;;;;;1.77;100.00;100996.44;5003790;28;20441;-84
2022/01/14 06:48:30;;;;;;;17.60;9.30;;;;;;;1.77;100.00;100996.44;4984164;28;20400;-85
2022/01/14 06:50:57;;;;;;;17.02;8.95;;;;;;;1.73;100.00;101000.09;5007006;28;20475;-84
2022/01/14 06:53:23;;;;;;;19.35;10.55;;;;;;;1.62;100.00;101008.47;5007230;28;20476;-84
2022/01/14 06:55:48;;;;;;;18.15;10.05;;;;;;;1.53;100.00;101015.00;5005469;28;20040;-85
2022/01/14 06:58:14;;;;;;;17.80;9.90;;;;;;;1.56;100.00;101020.00;5007852;28;20033;-83
2022/01/14 07:00:40;;;;;;;20.88;11.55;;;;;;;1.54;100.00;101011.50;5009176;28;20029;-85
2022/01/14 07:03:06;;;;;;;19.38;10.15;;;;;;;1.62;100.00;101015.44;4989846;28;20137;-84
2022/01/14 07:05:32;;;;;;;22.17;9.32;;;;;;;1.64;100.00;101006.63;4971909;28;20057;-84
2022/01/14 07:07:58;;;;;;;15.75;10.13;;;;;;;1.75;100.00;101002.63;4980826;28;20027;-85
2022/01/14 07:10:24;;;;;;;22.15;10.68;;;;;;;1.73;100.00;101002.69;4987160;28;20084;-85
2022/01/14 07:12:49;;;;;;;15.88;8.85;;;;;;;1.71;100.00;101007.97;4987925;28;20088;-84
2022/01/14 07:15:20;;;;;;;19.70;9.48;;;;;;;1.65;100.00;101007.50;4984900;28;20046;-83
2022/01/14 07:17:46;;;;;;;19.85;11.15;;;;;;;1.49;100.00;101000.59;5004838;28;20038;-86
2022/01/14 07:20:14;;;;;;;21.98;11.55;;;;;;;1.46;100.00;100998.19;4987771;28;20124;-84
2022/01/14 07:22:42;;;;;;;18.80;10.25;;;;;;;1.40;100.00;100995.94;4990979;28;20025;-84
2022/01/14 07:25:08;;;;;;;22.77;10.68;;;;;;;1.34;100.00;101002.28;4989587;28;20045;-87
2022/01/14 07:27:34;;;;;;;22.27;11.23;;;;;;;1.30;100.00;101007.72;4988927;28;20026;-85
2022/01/14 07:30:00;;;;;;;22.73;11.75;;;;;;;1.23;100.00;101008.06;4980917;28;20113;-86
2022/01/14 07:32:26;;;;;;;24.92;12.85;;;;;;;1.11;100.00;101003.56;5004259;28;20491;-84
2022/01/14 07:34:52;;;;;;;24.00;13.18;;;;;;;1.07;100.00;101008.06;5011102;28;20045;-85
2022/01/14 07:37:19;;;;;;;24.73;13.25;;;;;;;0.96;100.00;101016.41;4992721;28;20395;-84
2022/01/14 07:39:44;;;;;;;21.98;11.93;;;;;;;0.94;100.00;101031.16;5003779;28;20471;-85
2022/01/14 07:42:10;;;;;;;22.73;11.73;;;;;;;0.87;100.00;101027.25;4971930;28;20030;-83
2022/01/14 07:44:37;;;;;;;24.25;12.77;;;;;;;0.82;100.00;101026.66;5004287;28;20038;-85
2022/01/14 07:47:04;;;;;;;19.65;10.57;;;;;;;0.89;100.00;101029.75;4989595;28;20030;-84
2022/01/14 07:49:29;;;;;;;18.17;8.65;;;;;;;1.17;100.00;101023.09;5009697;28;20033;-85
2022/01/14 07:51:55;;;;;;;17.48;8.57;;;;;;;1.49;100.00;101015.28;5005446;28;20093;-82
2022/01/14 07:54:21;;;;;;;18.67;8.30;;;;;;;1.56;100.00;101027.78;5001308;28;20049;-82
2022/01/14 07:56:52;;;;;;;18.23;8.40;;;;;;;1.61;100.00;101024.13;5001273;28;20077;-82
2022/01/14 07:59:21;;;;;;;19.08;9.60;;;;;;;1.63;100.00;101024.88;5000499;28;20026;-82
2022/01/14 08:01:49;;;;;;;17.45;8.88;;;;;;;1.54;100.00;101027.03;5001484;28;20061;-81
2022/01/14 08:04:16;;;;;;;16.10;8.93;;;;;;;1.58;100.00;101021.72;5001052;28;20026;-83
2022/01/14 08:06:47;;;;;;;16.20;9.05;;;;;;;1.51;100.00;101032.38;5002880;28;20033;-83
2022/01/14 08:09:14;;;;;;;16.98;9.70;;;;;;;1.36;100.00;101033.25;5002322;28;20399;-83
2022/01/14 08:11:41;;;;;;;23.45;11.50;;;;;;;1.24;100.00;101040.78;4998944;28;20026;-82
2022/01/14 08:14:08;;;;;;;19.83;11.05;;;;;;;1.14;100.00;101034.41;5001752;28;20061;-84
2022/01/14 08:16:34;;;;;;;22.00;11.93;;;;;;;1.09;100.00;101031.25;4989644;28;20081;-82
2022/01/14 08:18:59;;;;;;;24.33;12.98;;;;;;;1.03;100.00;101035.00;4986857;28;20037;-85
2022/01/14 08:21:25;;;;;;;20.60;10.30;;;;;;;1.05;100.00;101042.69;5003270;28;20034;-84
2022/01/14 08:24:09;;;;;;;19.05;10.07;;;;;;;1.02;100.00;101050.63;4985105;28;20080;-85
2022/01/14 08:26:35;;;;;;;18.17;9.93;;;;;;;1.01;100.00;101033.44;4983187;28;20121;-83
2022/01/14 08:29:00;;;;;;;27.15;11.82;;;;;;;1.05;100.00;101034.94;5003626;28;20052;-80
2022/01/14 08:31:26;;;;;;;21.00;11.85;;;;;;;1.19;100.00;101042.78;5001109;28;20392;-81
2022/01/14 08:34:11;;;;;;;21.42;11.48;;;;;;;1.42;100.00;101049.25;4944036;28;20408;-82
2022/01/14 08:36:37;;;;;;;21.73;13.63;;;;;;;1.59;100.00;101051.84;4941721;28;20130;-82
2022/01/14 08:39:03;;;;;;;23.25;13.30;;;;;;;1.66;100.00;101051.38;4959994;28;20055;-82
2022/01/14 08:41:30;;;;;;;18.17;10.07;;;;;;;1.72;100.00;101060.56;4960211;28;20493;-81
2022/01/14 08:44:00;;;;;;;17.00;9.55;;;;;;;1.77;100.00;101056.00;4961235;28;20071;-84
2022/01/14 08:46:27;;;;;;;20.70;9.90;;;;;;;1.90;100.00;101057.84;4961579;28;20065;-83
2022/01/14 08:48:54;;;;;;;21.23;9.27;;;;;;;1.84;100.00;101049.53;4956972;28;20090;-83
2022/01/14 08:51:20;;;;;;;14.90;7.85;;;;;;;1.88;100.00;101044.16;4942658;28;20035;-82
2022/01/14 08:53:46;;;;;;;15.40;8.10;;;;;;;1.91;100.00;101049.16;4943160;28;20070;-81
2022/01/14 08:56:12;;;;;;;18.48;8.68;;;;;;;1.92;100.00;101045.66;4958974;28;20062;-82
2022/01/14 08:58:37;;;;;;;19.02;9.13;;;;;;;2.00;100.00;101053.84;4947681;28;20121;-82
2022/01/14 09:01:03;;;;;;;13.30;7.85;;;;;;;1.94;100.00;101051.56;4924171;28;20122;-82
2022/01/14 09:03:28;;;;;;;15.43;9.45;;;;;;;1.89;100.00;101062.22;4959727;28;20065;-82
2022/01/14 09:05:54;;;;;;;13.85;8.73;;;;;;;1.82;100.00;101053.97;4997451;28;20121;-81
2022/01/14 09:08:19;;;;;;;14.45;9.40;;;;;;;1.85;100.00;101058.97;5002978;28;20026;-82
2022/01/14 09:10:45;;;;;;;16.88;10.25;;;;;;;1.86;100.00;101052.00;4998743;28;20026;-82
2022/01/14 09:13:11;;;;;;;20.90;11.55;;;;;;;1.96;100.00;101062.69;4963242;28;20068;-82
2022/01/14 09:15:37;;;;;;;19.02;10.52;;;;;;;1.99;100.00;101057.34;5004567;28;20034;-82
2022/01/14 09:18:03;;;;;;;19.17;9.70;;;;;;;2.10;100.00;101065.31;4999506;28;20037;-82
2022/01/14 09:20:30;;;;;;;22.00;10.77;;;;;;;2.18;100.00;101056.28;4986495;28;20041;-82
2022/01/14 09:22:57;;;;;;;19.52;10.43;;;;;;;2.29;100.00;101059.06;4992602;28;20038;-82
2022/01/14 09:25:24;;;;;;;16.95;9.25;;;;;;;2.32;100.00;101068.41;5000492;28;20041;-82
2022/01/14 09:27:52;;;;;;;18.67;9.05;;;;;;;2.38;100.00;101068.91;4984299;28;20483;-81
2022/01/14 09:30:19;;;;;;;17.23;9.32;;;;;;;2.48;100.00;101070.94;4995475;28;20080;-81
2022/01/14 09:32:45;;;;;;;17.05;8.73;;;;;;;2.43;100.00;101071.19;4998251;28;20084;-81
2022/01/14 09:35:13;;;;;;;17.13;8.68;;;;;;;2.55;100.00;101067.88;5000316;28;20065;-80
2022/01/14 09:37:41;;;;;;;13.23;8.55;;;;;;;2.52;100.00;101070.66;4968990;28;20076;-81
2022/01/14 09:40:08;;;;;;;17.77;9.48;;;;;;;2.53;100.00;101071.47;5001988;28;20498;-82
2022/01/14 09:42:34;;;;;;;23.40;11.10;;;;;;;2.57;100.00;101066.03;4985108;28;20077;-80
2022/01/14 09:45:01;;;;;;;23.45;10.65;;;;;;;2.68;100.00;101054.19;4997380;28;20052;-80
2022/01/14 09:47:48;;;;;;;24.65;11.13;;;;;;;2.78;100.00;101065.66;4984736;28;20044;-81
2022/01/14 09:50:14;;;;;;;20.20;10.52;;;;;;;2.84;100.00;101070.44;4987057;28;20492;-81
2022/01/14 09:52:40;;;;;;;25.08;11.00;;;;;;;2.85;100.00;101055.75;5001619;28;20033;-81
2022/01/14 09:55:06;;;;;;;27.05;11.73;;;;;;;2.90;100.00;101052.88;4980624;28;20093;-81
2022/01/14 09:57:32;;;;;;;19.40;9.90;;;;;;;2.89;100.00;101051.19;4997511;28;20193;-80
2022/01/14 09:59:57;;;;;;;20.02;10.43;;;;;;;2.95;100.00;101061.19;4984522;28;20108;-81
2022/01/14 10:02:34;;;;;;;18.98;9.63;;;;;;;3.12;100.00;101062.72;5001403;28;20029;-82
2022/01/14 10:05:00;;;;;;;18.90;9.23;;;;;;;3.14;100.00;101048.75;4982080;28;20125;-81
2022/01/14 10:07:26;;;;;;;18.42;9.27;;;;;;;3.24;100.00;101045.56;4987712;28;20077;-82
2022/01/14 10:09:58;;;;;;;14.48;8.18;;;;;;;3.18;100.00;101049.38;5004302;28;20507;-82
2022/01/14 10:12:24;;;;;;;13.65;7.38;;;;;;;3.20;100.00;101052.72;5003562;28;20034;-82
2022/01/14 10:15:06;;;;;;;14.90;7.35;;;;;;;3.27;100.00;101041.00;5003932;28;20046;-82
2022/01/14 10:17:37;;;;;;;14.65;7.43;;;;;;;3.36;100.00;101043.97;5005128;28;20041;-81
2022/01/14 10:20:05;;;;;;;10.80;6.05;;;;;;;3.34;100.00;101051.00;5004280;28;20041;-83
2022/01/14 10:22:34;;;;;;;13.60;7.32;;;;;;;3.29;100.00;101043.53;4982989;28;20383;-83
2022/01/14 10:25:03;;;;;;;9.63;5.97;;;;;;;3.29;100.00;101041.75;4988061;28;20064;-83
2022/01/14 10:27:31;;;;;;;12.10;6.60;;;;;;;3.35;100.00;101042.31;4998839;28;20057;-84
2022/01/14 10:30:07;;;;;;;12.10;6.03;;;;;;;3.42;100.00;101038.38;5007950;28;20034;-84
2022/01/14 10:32:34;;;;;;;11.60;5.40;;;;;;;3.44;100.00;101036.50;5005649;28;20501;-83
2022/01/14 10:35:05;;;;;;;11.60;5.70;;;;;;;3.48;100.00;101043.16;4985520;28;20400;-84
2022/01/14 10:37:34;;;;;;;10.88;5.53;;;;;;;3.48;100.00;101043.16;4980128;28;20470;-84
2022/01/14 10:40:03;;;;;;;8.82;4.55;;;;;;;3.52;100.00;101036.84;4981237;28;20030;-88
2022/01/14 10:42:34;;;;;;;7.55;5.07;;;;;;;3.55;100.00;101044.44;4971733;28;20545;-87
2022/01/14 10:45:15;;;;;;;10.85;6.88;;;;;;;3.55;100.00;101041.00;4991815;28;20125;-86
2022/01/14 10:47:41;;;;;;;15.50;9.90;;;;;;;3.60;100.00;101041.53;4985067;28;20539;-86
2022/01/14 10:50:07;;;;;;;24.42;13.15;;;;;;;3.55;100.00;101038.41;4986164;28;20081;-86
2022/01/14 10:52:32;;;;;;;21.40;13.55;;;;;;;3.52;100.00;101044.63;4983815;28;20034;-86
2022/01/14 10:54:59;;;;;;;25.95;13.23;;;;;;;3.57;100.00;101037.41;4983316;28;20038;-87
2022/01/14 10:57:32;;;;;;;23.40;14.27;;;;;;;3.66;100.00;101030.78;4966387;28;20026;-86
2022/01/14 11:00:19;;;;;;;26.80;15.55;;;;;;;3.71;100.00;101018.31;4970180;28;20022;-87
2022/01/14 11:02:45;;;;;;;26.70;15.15;;;;;;;3.78;100.00;101029.13;4984960;28;20058;-86
2022/01/14 11:05:15;;;;;;;23.38;14.07;;;;;;;3.72;100.00;101016.53;4985015;28;20061;-86
2022/01/14 11:07:42;;;;;;;25.02;15.48;;;;;;;3.78;100.00;101018.75;4985212;28;20093;-87
2022/01/14 11:10:16;;;;;;;24.92;16.25;;;;;;;3.72;100.00;101019.13;4986143;28;20026;-86
2022/01/14 11:12:43;;;;;;;24.25;15.15;;;;;;;3.77;100.00;101011.88;4985094;28;20118;-87
2022/01/14 11:15:10;;;;;;;22.77;14.05;;;;;;;3.76;100.00;101005.03;4983817;28;20026;-86
2022/01/14 11:17:41;;;;;;;23.02;13.90;;;;;;;3.86;100.00;100998.28;4986288;28;20121;-86
2022/01/14 11:20:09;;;;;;;18.10;12.02;;;;;;;3.90;100.00;101013.66;4980201;28;20097;-86
2022/01/14 11:25:20;;;;;;;26.27;10.43;;;;;;;3.89;100.00;101015.44;4984739;28;20034;-87
2022/01/14 11:27:51;;;;;;;13.23;8.63;;;;;;;3.89;100.00;101004.19;4971350;28;20512;-86
2022/01/14 11:30:17;;;;;;;13.55;8.05;;;;;;;3.91;100.00;101010.97;4991768;28;20030;-87
2022/01/14 11:32:57;;;;;;;15.50;7.93;;;;;;;3.97;100.00;101018.34;4982463;28;20035;-88
2022/01/14 11:35:26;;;;;;;13.13;6.82;;;;;;;3.98;100.00;101008.78;4988944;28;20038;-85
2022/01/14 11:37:52;;;;;;;12.73;7.60;;;;;;;4.08;100.00;100994.22;4983573;28;20045;-85
2022/01/14 11:40:19;;;;;;;10.82;7.80;;;;;;;4.10;100.00;100997.56;4988772;28;20058;-86
2022/01/14 11:43:03;;;;;;;16.02;6.97;;;;;;;4.13;100.00;100999.97;4970672;28;20089;-87
2022/01/14 11:45:44;;;;;;;11.82;6.63;;;;;;;4.13;100.00;100999.97;5004690;28;20030;-86
2022/01/14 11:48:32;;;;;;;10.30;6.82;;;;;;;4.10;100.00;100992.34;5010165;28;20033;-88